Time;durP1;ratioP1;P1;durP2;ratioP2;P2;SDS_P1;SDS_P2;PMS_P1;PMS_P2;Temp;Humidity;BMP_temperature;BMP_pressure;BME280_temperature;BME280_humidity;BME280_pressure;Samples;Min_cycle;Max_cycle;Signal;HPM_P1;HPM_P2
2022/04/14 00:01:28;;;;;;;4.97;2.08;;;;;;;5.99;56.56;99408.13;4928087;29;20059;-71
2022/04/14 00:03:55;;;;;;;7.50;2.30;;;;;;;5.91;56.63;99409.38;4932474;29;20066;-70
2022/04/14 00:06:21;;;;;;;5.15;2.03;;;;;;;5.81;57.08;99420.94;4932986;29;20095;-70
2022/04/14 00:08:47;;;;;;;5.10;2.20;;;;;;;5.84;56.85;99419.63;4938890;29;20524;-71
2022/04/14 00:11:14;;;;;;;3.65;1.73;;;;;;;5.85;56.81;99404.97;4939414;28;20059;-71
2022/04/14 00:13:41;;;;;;;8.93;3.15;;;;;;;5.68;57.24;99416.72;4930135;29;20060;-70
2022/04/14 00:16:07;;;;;;;6.90;2.58;;;;;;;5.75;57.36;99420.03;4936431;28;20512;-72
2022/04/14 00:18:33;;;;;;;6.45;2.20;;;;;;;5.79;57.22;99423.91;4927649;29;20091;-73
2022/04/14 00:20:59;;;;;;;9.25;2.50;;;;;;;5.81;57.16;99423.66;4931391;29;20116;-73
2022/04/14 00:23:25;;;;;;;6.63;2.13;;;;;;;5.77;57.31;99428.75;4921169;29;20108;-73
2022/04/14 00:25:52;;;;;;;5.60;2.05;;;;;;;5.76;57.06;99416.25;4914449;29;20054;-72
2022/04/14 00:28:19;;;;;;;4.88;2.00;;;;;;;5.86;56.98;99417.47;4927637;29;20063;-72
2022/04/14 00:30:45;;;;;;;7.43;2.40;;;;;;;5.86;56.66;99406.63;4929400;29;20048;-72
2022/04/14 00:33:11;;;;;;;7.20;2.15;;;;;;;5.77;56.95;99414.38;4924173;29;20500;-72
2022/04/14 00:35:38;;;;;;;6.40;2.13;;;;;;;5.86;56.98;99410.16;4933820;28;20051;-72
2022/04/14 00:38:04;;;;;;;5.68;2.00;;;;;;;5.88;56.91;99412.59;4928472;29;20098;-73
2022/04/14 00:40:30;;;;;;;6.15;2.35;;;;;;;5.73;57.18;99418.69;4946180;29;20055;-73
2022/04/14 00:42:56;;;;;;;5.00;2.05;;;;;;;5.78;57.00;99414.13;4934909;29;20135;-72
2022/04/14 00:45:23;;;;;;;7.72;2.38;;;;;;;5.66;57.19;99405.31;4930423;29;20115;-72
2022/04/14 00:47:53;;;;;;;8.57;2.30;;;;;;;5.68;57.13;99414.81;4937575;28;20102;-72
2022/04/14 00:50:20;;;;;;;6.07;1.92;;;;;;;5.57;57.52;99417.66;4947961;29;20130;-72
2022/04/14 00:52:47;;;;;;;5.35;1.90;;;;;;;5.52;57.70;99410.25;4936590;28;20126;-72
2022/04/14 00:55:13;;;;;;;5.97;2.08;;;;;;;5.47;57.55;99402.91;4932730;29;20069;-73
2022/04/14 00:57:40;;;;;;;5.10;2.00;;;;;;;5.48;57.52;99409.97;4926304;29;20060;-72
2022/04/14 01:00:07;;;;;;;7.70;2.08;;;;;;;5.49;57.75;99413.47;4922758;29;20079;-72
2022/04/14 01:02:34;;;;;;;9.57;2.17;;;;;;;5.44;57.65;99416.94;4930801;28;20123;-73
2022/04/14 01:05:01;;;;;;;5.38;2.17;;;;;;;5.40;57.84;99423.94;4938316;29;20058;-72
2022/04/14 01:07:29;;;;;;;5.07;1.83;;;;;;;5.33;58.05;99417.88;4935768;29;20409;-73
2022/04/14 01:09:56;;;;;;;4.43;1.80;;;;;;;5.30;58.08;99413.75;4935606;29;20166;-71
2022/04/14 01:12:23;;;;;;;5.55;2.03;;;;;;;5.32;57.85;99397.25;4937724;29;20052;-72
2022/04/14 01:14:49;;;;;;;6.38;2.13;;;;;;;5.34;57.73;99412.19;4939453;29;20055;-73
2022/04/14 01:17:15;;;;;;;6.20;2.00;;;;;;;5.28;58.20;99424.03;4922022;29;20067;-73
2022/04/14 01:19:43;;;;;;;5.82;2.10;;;;;;;5.32;57.97;99422.47;4928369;29;20146;-73
2022/04/14 01:22:16;;;;;;;6.40;2.38;;;;;;;5.35;57.97;99424.69;4921535;29;20059;-74
2022/04/14 01:24:44;;;;;;;7.47;2.42;;;;;;;5.37;57.76;99422.53;4890993;29;20079;-74
2022/04/14 01:27:10;;;;;;;6.13;2.10;;;;;;;5.31;57.99;99425.44;4916637;29;20585;-73
2022/04/14 01:29:37;;;;;;;5.00;2.50;;;;;;;5.21;58.38;99426.09;4930380;29;20146;-73
2022/04/14 01:32:04;;;;;;;4.47;2.00;;;;;;;5.20;58.25;99424.44;4939838;28;20074;-73
2022/04/14 01:34:31;;;;;;;7.65;2.15;;;;;;;5.23;58.27;99423.97;4935385;29;20634;-73
2022/04/14 01:36:57;;;;;;;5.73;2.17;;;;;;;5.32;57.83;99427.09;4907328;29;20068;-74
2022/04/14 01:39:25;;;;;;;7.45;2.28;;;;;;;5.16;58.39;99424.16;4931989;29;20139;-73
2022/04/14 01:41:52;;;;;;;;;;;;;;;5.13;58.55;99419.19;4937032;29;20098;-73
2022/04/14 01:44:18;;;;;;;5.38;1.80;;;;;;;5.15;58.07;99421.69;4935254;29;20025;-73
2022/04/14 01:46:44;;;;;;;5.05;1.80;;;;;;;5.23;58.24;99435.63;4935089;29;20088;-72
2022/04/14 01:49:11;;;;;;;5.55;1.70;;;;;;;5.19;58.21;99428.22;4915929;29;20058;-72
2022/04/14 01:51:37;;;;;;;7.65;2.00;;;;;;;5.23;58.27;99432.91;4939417;28;20480;-73
2022/04/14 01:54:04;;;;;;;5.40;1.88;;;;;;;5.24;58.18;99428.31;4918132;29;20139;-73
2022/04/14 01:56:30;;;;;;;3.63;1.88;;;;;;;5.16;58.42;99426.03;4916479;29;20526;-72
2022/04/14 01:58:58;;;;;;;6.07;1.70;;;;;;;5.12;58.24;99425.69;4932698;29;20064;-72
2022/04/14 02:01:24;;;;;;;4.82;1.60;;;;;;;5.03;58.59;99402.81;4925895;29;20517;-73
2022/04/14 02:03:51;;;;;;;6.10;2.20;;;;;;;5.06;58.47;99424.78;4934215;29;20054;-74
2022/04/14 02:06:18;;;;;;;4.90;1.80;;;;;;;5.06;58.48;99416.66;4933601;29;20436;-74
2022/04/14 02:08:44;;;;;;;3.60;1.55;;;;;;;5.06;58.51;99418.56;4937085;29;20047;-73
2022/04/14 02:11:11;;;;;;;5.63;1.80;;;;;;;5.27;57.80;99432.41;4932329;29;20146;-74
2022/04/14 02:13:37;;;;;;;4.13;1.67;;;;;;;5.10;57.92;99427.84;4934628;29;20052;-74
2022/04/14 02:16:05;;;;;;;4.47;1.60;;;;;;;4.95;58.50;99436.56;4934534;29;20052;-73
2022/04/14 02:18:31;;;;;;;4.88;1.63;;;;;;;4.87;58.72;99445.91;4931903;29;20058;-74
2022/04/14 02:20:58;;;;;;;5.95;1.80;;;;;;;4.90;58.73;99450.00;4925694;29;20150;-73
2022/04/14 02:23:24;;;;;;;4.55;1.60;;;;;;;4.99;58.40;99450.41;4932378;29;20151;-74
2022/04/14 02:25:51;;;;;;;3.78;1.50;;;;;;;4.93;58.45;99449.53;4933938;28;20150;-74
2022/04/14 02:28:17;;;;;;;5.15;1.67;;;;;;;5.03;58.38;99449.69;4934995;29;20082;-74
2022/04/14 02:30:43;;;;;;;3.80;1.70;;;;;;;4.93;58.38;99441.41;4925308;29;20089;-74
2022/04/14 02:33:10;;;;;;;4.00;1.60;;;;;;;4.91;58.45;99443.50;4934434;29;20091;-74
2022/04/14 02:35:36;;;;;;;3.93;1.50;;;;;;;4.77;58.82;99451.97;4938036;28;20047;-74
2022/04/14 02:38:03;;;;;;;5.85;1.73;;;;;;;4.78;58.88;99450.91;4937348;29;20315;-73
2022/04/14 02:40:29;;;;;;;10.00;1.45;;;;;;;4.80;58.76;99445.25;4923914;29;20509;-74
2022/04/14 02:42:57;;;;;;;6.90;2.00;;;;;;;4.92;58.68;99445.19;4934229;29;20063;-74
2022/04/14 02:45:24;;;;;;;5.07;1.92;;;;;;;4.79;58.83;99447.13;4940820;29;20058;-74
2022/04/14 02:47:50;;;;;;;5.05;1.67;;;;;;;4.88;58.58;99439.44;4922719;29;20075;-72
2022/04/14 02:50:18;;;;;;;3.63;1.38;;;;;;;4.96;58.28;99443.63;4928757;29;20052;-73
2022/04/14 02:52:44;;;;;;;4.93;1.80;;;;;;;4.88;58.44;99436.72;4933064;29;20058;-72
2022/04/14 02:55:10;;;;;;;6.20;1.88;;;;;;;5.02;58.08;99449.94;4934530;29;20048;-72
2022/04/14 02:57:37;;;;;;;5.88;1.58;;;;;;;4.84;58.26;99446.41;4933936;29;20447;-72
2022/04/14 03:00:05;;;;;;;8.30;2.03;;;;;;;4.80;58.43;99451.50;4931231;29;20067;-71
2022/04/14 03:02:31;;;;;;;10.38;2.15;;;;;;;4.81;58.43;99452.28;4918341;29;20205;-73
2022/04/14 03:04:58;;;;;;;5.05;1.90;;;;;;;4.80;58.53;99462.31;4944327;29;20080;-73
2022/04/14 03:07:25;;;;;;;5.05;1.80;;;;;;;4.89;58.31;99456.50;4935687;29;20114;-73
2022/04/14 03:09:51;;;;;;;8.80;2.80;;;;;;;4.86;58.03;99457.81;4916579;29;20060;-72
2022/04/14 03:12:17;;;;;;;8.07;2.90;;;;;;;4.78;58.30;99467.16;4936202;29;20306;-72
2022/04/14 03:14:43;;;;;;;6.25;2.03;;;;;;;4.76;58.61;99466.59;4936694;29;20051;-73
2022/04/14 03:17:10;;;;;;;8.48;1.83;;;;;;;4.74;58.55;99471.41;4916719;29;20060;-73
2022/04/14 03:19:36;;;;;;;7.75;1.80;;;;;;;4.81;58.56;99466.69;4924110;29;20106;-73
2022/04/14 03:22:02;;;;;;;6.70;1.75;;;;;;;4.72;58.58;99462.72;4908806;29;20409;-73
2022/04/14 03:24:30;;;;;;;5.05;1.55;;;;;;;4.79;58.58;99474.22;4931950;29;20079;-73
2022/04/14 03:26:56;;;;;;;10.57;2.00;;;;;;;4.80;58.60;99480.44;4914711;29;20059;-73
2022/04/14 03:29:22;;;;;;;5.60;1.60;;;;;;;4.77;58.54;99476.38;4926279;29;20808;-73
2022/04/14 03:31:48;;;;;;;7.10;1.77;;;;;;;4.74;58.49;99476.03;4921968;29;20134;-73
2022/04/14 03:34:14;;;;;;;5.72;1.60;;;;;;;4.77;58.56;99486.38;4932667;29;20488;-73
2022/04/14 03:36:40;;;;;;;4.15;1.60;;;;;;;4.82;58.13;99473.72;4900820;29;20051;-73
2022/04/14 03:39:07;;;;;;;4.88;1.77;;;;;;;4.93;58.03;99490.97;4929655;29;20432;-73
2022/04/14 03:41:34;;;;;;;8.52;1.85;;;;;;;4.92;58.00;99486.63;4908634;29;20478;-71
2022/04/14 03:44:00;;;;;;;5.70;1.70;;;;;;;4.88;57.94;99490.91;4933081;29;20047;-73
2022/04/14 03:46:26;;;;;;;4.18;1.50;;;;;;;4.86;58.15;99492.19;4933311;29;20319;-73
2022/04/14 03:48:54;;;;;;;13.77;1.65;;;;;;;4.93;58.22;99487.47;4927430;29;20051;-73
2022/04/14 03:51:20;;;;;;;6.15;2.10;;;;;;;4.99;57.81;99486.47;4920008;29;20079;-73
2022/04/14 03:53:46;;;;;;;5.05;1.40;;;;;;;4.93;57.78;99488.28;4930526;29;20159;-74
2022/04/14 03:56:12;;;;;;;3.85;1.60;;;;;;;5.10;57.62;99476.63;4929905;29;20058;-73
2022/04/14 03:58:39;;;;;;;6.78;1.67;;;;;;;5.08;57.56;99478.75;4934267;29;20112;-73
2022/04/14 04:01:05;;;;;;;5.18;1.77;;;;;;;5.21;57.14;99478.44;4921584;29;20059;-73
2022/04/14 04:03:31;;;;;;;4.65;1.73;;;;;;;5.19;57.18;99487.88;4932600;29;20063;-73
2022/04/14 04:05:57;;;;;;;4.30;1.50;;;;;;;5.14;57.24;99496.72;4933200;29;20512;-74
2022/04/14 04:08:23;;;;;;;9.50;1.65;;;;;;;5.09;57.16;99477.69;4932719;29;20063;-73
2022/04/14 04:10:49;;;;;;;5.22;1.60;;;;;;;5.08;57.26;99481.47;4932920;29;20521;-74
2022/04/14 04:13:16;;;;;;;7.30;1.85;;;;;;;4.96;57.76;99487.78;4932710;29;20529;-74
2022/04/14 04:15:42;;;;;;;5.97;1.63;;;;;;;4.99;57.78;99486.47;4935124;29;20051;-74
2022/04/14 04:18:08;;;;;;;7.20;1.73;;;;;;;4.97;57.71;99489.41;4938002;29;20099;-74
2022/04/14 04:20:35;;;;;;;8.70;1.92;;;;;;;4.83;58.10;99488.91;4928487;29;20504;-73
2022/04/14 04:23:03;;;;;;;4.88;1.75;;;;;;;4.94;57.94;99492.63;4941283;29;20055;-74
2022/04/14 04:25:29;;;;;;;4.35;1.50;;;;;;;4.94;57.84;99498.03;4928871;29;20047;-74
2022/04/14 04:27:56;;;;;;;8.15;1.50;;;;;;;5.14;57.56;99479.66;4936438;28;20063;-74
2022/04/14 04:30:22;;;;;;;3.60;1.42;;;;;;;5.21;57.14;99496.56;4934993;29;20150;-73
2022/04/14 04:32:49;;;;;;;4.60;1.67;;;;;;;5.19;57.15;99493.28;4926568;29;20432;-74
2022/04/14 04:35:15;;;;;;;5.43;1.80;;;;;;;5.19;57.19;99491.41;4930702;29;20247;-74
2022/04/14 04:37:41;;;;;;;9.80;1.73;;;;;;;5.25;57.26;99486.91;4938778;28;20071;-74
2022/04/14 04:40:09;;;;;;;4.90;1.80;;;;;;;5.24;57.22;99485.25;4934340;29;20088;-74
2022/04/14 04:42:35;;;;;;;14.45;2.25;;;;;;;5.33;56.59;99491.88;4936059;29;20071;-73
2022/04/14 04:45:02;;;;;;;4.38;1.80;;;;;;;5.32;56.68;99484.81;4944196;29;20055;-73
2022/04/14 04:47:29;;;;;;;6.80;2.33;;;;;;;5.36;56.68;99494.09;4936049;28;20061;-72
2022/04/14 04:49:56;;;;;;;6.70;1.70;;;;;;;5.48;56.25;99496.75;4927839;29;20043;-73
2022/04/14 04:52:22;;;;;;;7.22;1.88;;;;;;;5.60;55.96;99488.50;4930255;29;20110;-73
2022/04/14 04:54:48;;;;;;;7.88;1.92;;;;;;;5.58;55.94;99493.34;4938056;29;20048;-73
2022/04/14 04:57:15;;;;;;;5.03;1.60;;;;;;;5.57;55.46;99478.16;4936007;29;20062;-74
2022/04/14 04:59:40;;;;;;;8.73;1.73;;;;;;;5.41;56.00;99473.56;4931849;29;20059;-73
2022/04/14 05:02:07;;;;;;;5.65;2.50;;;;;;;5.54;55.57;99478.63;4935803;29;20063;-74
2022/04/14 05:04:33;;;;;;;4.70;1.58;;;;;;;5.61;55.16;99478.44;4928276;29;20071;-73
2022/04/14 05:07:00;;;;;;;10.32;1.85;;;;;;;5.57;55.22;99478.16;4930668;29;20587;-73
2022/04/14 05:09:27;;;;;;;11.43;2.15;;;;;;;5.56;55.53;99489.25;4927155;29;20509;-74
2022/04/14 05:11:53;;;;;;;7.90;1.65;;;;;;;5.54;55.27;99479.47;4920259;29;20155;-74
2022/04/14 05:14:19;;;;;;;5.50;1.80;;;;;;;5.60;55.20;99488.50;4908145;29;20143;-74
2022/04/14 05:16:45;;;;;;;10.05;1.63;;;;;;;5.65;55.18;99490.47;4913721;29;20048;-74
2022/04/14 05:19:11;;;;;;;4.78;1.75;;;;;;;5.80;55.01;99497.97;4932608;29;20056;-73
2022/04/14 05:21:37;;;;;;;5.18;1.65;;;;;;;5.91;54.42;99490.78;4939477;28;20231;-73
2022/04/14 05:24:06;;;;;;;8.38;1.92;;;;;;;5.89;54.38;99482.09;4934372;29;20170;-73
2022/04/14 05:26:32;;;;;;;9.50;1.77;;;;;;;5.87;54.55;99474.22;4934331;29;20051;-73
2022/04/14 05:28:59;;;;;;;13.00;1.80;;;;;;;5.87;54.36;99470.66;4935418;29;20048;-73
2022/04/14 05:31:25;;;;;;;8.10;2.22;;;;;;;5.89;54.07;99473.94;4939418;28;20052;-74
2022/04/14 05:33:51;;;;;;;6.95;1.70;;;;;;;6.00;53.99;99478.44;4933785;29;20155;-73
2022/04/14 05:36:17;;;;;;;11.00;1.75;;;;;;;6.13;53.61;99479.16;4934628;29;20170;-73
2022/04/14 05:38:43;;;;;;;5.85;1.67;;;;;;;6.24;53.32;99480.91;4934208;29;20067;-73
2022/04/14 05:41:10;;;;;;;5.22;1.60;;;;;;;6.28;53.12;99489.38;4935498;29;20060;-73
2022/04/14 05:43:36;;;;;;;9.37;1.77;;;;;;;6.29;52.71;99486.41;4934969;29;20064;-73
2022/04/14 05:46:03;;;;;;;6.43;1.50;;;;;;;6.44;52.49;99487.66;4934921;29;20323;-68
2022/04/14 05:48:29;;;;;;;6.50;2.23;;;;;;;6.52;52.21;99484.47;4927633;29;20464;-67
2022/04/14 05:50:55;;;;;;;5.93;1.55;;;;;;;6.56;52.06;99490.22;4937117;29;20318;-66
2022/04/14 05:53:25;;;;;;;5.97;1.80;;;;;;;6.63;51.98;99488.94;4941235;29;20086;-67
2022/04/14 05:55:51;;;;;;;6.80;1.65;;;;;;;6.66;51.65;99491.16;4934258;29;20538;-67
2022/04/14 05:58:18;;;;;;;6.75;1.40;;;;;;;6.66;51.47;99482.19;4940083;29;20060;-67
2022/04/14 06:00:44;;;;;;;5.68;1.60;;;;;;;6.76;51.27;99486.91;4929393;29;20753;-68
2022/04/14 06:03:10;;;;;;;6.85;2.22;;;;;;;6.73;50.88;99465.69;4934941;29;20564;-70
2022/04/14 06:05:37;;;;;;;12.90;1.80;;;;;;;6.92;50.92;99472.38;4929603;29;20062;-67
2022/04/14 06:08:04;;;;;;;10.30;1.85;;;;;;;7.00;50.50;99481.13;4938608;29;20059;-68
2022/04/14 06:10:30;;;;;;;7.07;1.60;;;;;;;7.04;50.50;99483.06;4936740;29;20051;-68
2022/04/14 06:12:56;;;;;;;6.47;1.70;;;;;;;7.10;50.07;99492.09;4932821;29;20459;-68
2022/04/14 06:15:26;;;;;;;9.63;1.42;;;;;;;7.09;49.92;99490.44;4931071;29;20056;-69
2022/04/14 06:17:52;;;;;;;7.65;1.70;;;;;;;7.15;49.61;99499.47;4938166;29;20171;-68
2022/04/14 06:20:18;;;;;;;5.20;1.67;;;;;;;7.17;49.36;99486.44;4938564;29;20142;-67
2022/04/14 06:22:44;;;;;;;22.85;2.78;;;;;;;7.25;49.35;99488.66;4926720;29;20060;-68
2022/04/14 06:25:13;;;;;;;6.07;1.60;;;;;;;7.35;49.21;99498.81;4933061;29;20512;-68
2022/04/14 06:27:39;;;;;;;4.88;1.60;;;;;;;7.34;48.84;99502.63;4924806;28;20095;-67
2022/04/14 06:30:07;;;;;;;5.95;1.75;;;;;;;7.43;48.90;99501.03;4929399;29;20066;-68
2022/04/14 06:32:34;;;;;;;4.57;1.58;;;;;;;7.52;48.65;99501.38;4917143;29;20054;-67
2022/04/14 06:35:00;;;;;;;6.75;2.30;;;;;;;7.59;48.22;99510.16;4933309;29;20492;-67
2022/04/14 06:37:26;;;;;;;13.30;2.17;;;;;;;7.63;48.01;99500.38;4941389;29;20066;-67
2022/04/14 06:39:53;;;;;;;8.13;1.92;;;;;;;7.61;47.53;99496.25;4912087;29;20493;-69
2022/04/14 06:42:21;;;;;;;9.15;1.83;;;;;;;7.58;47.54;99496.78;4919509;29;20436;-69
2022/04/14 06:44:50;;;;;;;10.50;1.58;;;;;;;7.73;47.27;99502.31;4919454;29;20124;-69
2022/04/14 06:47:16;;;;;;;13.25;1.45;;;;;;;7.79;46.92;99506.72;4934122;29;20525;-69
2022/04/14 06:49:43;;;;;;;7.00;1.63;;;;;;;7.79;46.73;99501.25;4935482;29;20051;-69
2022/04/14 06:52:09;;;;;;;12.70;2.08;;;;;;;7.86;46.57;99506.47;4943956;29;20078;-68
2022/04/14 06:54:35;;;;;;;8.50;1.73;;;;;;;7.91;46.65;99509.25;4936881;29;20063;-67
2022/04/14 06:57:01;;;;;;;6.28;1.52;;;;;;;7.95;46.39;99513.06;4920205;29;20620;-69
2022/04/14 06:59:27;;;;;;;8.45;1.60;;;;;;;8.04;46.41;99507.94;4915291;29;20163;-68
2022/04/14 07:01:54;;;;;;;8.80;1.73;;;;;;;8.09;46.22;99504.44;4936608;29;20102;-68
2022/04/14 07:04:19;;;;;;;9.32;1.85;;;;;;;8.17;46.10;99511.25;4925944;29;20056;-68
2022/04/14 07:06:47;;;;;;;6.13;1.33;;;;;;;8.23;45.91;99510.19;4922834;29;20047;-69
2022/04/14 07:09:13;;;;;;;11.23;1.42;;;;;;;8.32;45.86;99489.53;4935328;29;20158;-70
2022/04/14 07:11:39;;;;;;;12.57;1.80;;;;;;;8.35;45.64;99505.34;4933673;29;20151;-70
2022/04/14 07:14:05;;;;;;;4.63;1.50;;;;;;;8.42;45.38;99505.09;4951490;29;20447;-70
2022/04/14 07:16:31;;;;;;;6.40;1.35;;;;;;;8.44;45.32;99483.03;4931575;29;20059;-70
2022/04/14 07:18:57;;;;;;;11.40;2.22;;;;;;;8.55;45.11;99505.72;4935751;29;20052;-70
2022/04/14 07:21:23;;;;;;;9.95;1.60;;;;;;;8.64;45.07;99506.81;4934341;29;20055;-70
2022/04/14 07:23:51;;;;;;;6.80;1.60;;;;;;;8.71;44.87;99496.47;4941659;29;20162;-70
2022/04/14 07:26:17;;;;;;;7.40;1.63;;;;;;;8.75;44.25;99497.56;4941093;29;20056;-70
2022/04/14 07:28:44;;;;;;;3.70;1.27;;;;;;;8.76;44.32;99492.94;4938585;29;20114;-69
2022/04/14 07:31:09;;;;;;;9.50;1.30;;;;;;;8.83;44.18;99498.13;4933258;29;20060;-70
2022/04/14 07:33:36;;;;;;;9.00;1.60;;;;;;;8.90;44.32;99502.25;4934117;29;20082;-69
2022/04/14 07:36:02;;;;;;;12.82;2.08;;;;;;;8.94;44.11;99491.59;4932270;29;20531;-69
2022/04/14 07:38:28;;;;;;;5.25;1.67;;;;;;;9.05;44.06;99481.50;4931879;29;20182;-70
2022/04/14 07:40:58;;;;;;;9.80;1.90;;;;;;;9.06;43.88;99486.69;4929518;29;20080;-70
2022/04/14 07:43:24;;;;;;;8.20;1.60;;;;;;;9.15;43.80;99480.72;4926315;29;20059;-69
2022/04/14 07:45:50;;;;;;;11.60;1.60;;;;;;;9.19;43.72;99485.31;4945012;28;20067;-71
2022/04/14 07:48:16;;;;;;;10.52;1.73;;;;;;;9.28;43.44;99476.59;4933185;29;20063;-71
2022/04/14 07:50:42;;;;;;;11.10;2.25;;;;;;;9.34;43.16;99459.94;4931530;29;20147;-70
2022/04/14 07:53:08;;;;;;;9.05;1.70;;;;;;;9.37;42.66;99488.59;4938192;29;20149;-70
2022/04/14 07:55:35;;;;;;;10.73;1.85;;;;;;;9.41;42.19;99470.59;4941951;29;20469;-70
2022/04/14 07:58:07;;;;;;;13.07;2.10;;;;;;;9.49;42.09;99485.59;4928523;29;20075;-70
2022/04/14 08:00:34;;;;;;;14.30;2.25;;;;;;;9.54;41.98;99491.03;4918453;29;20067;-70
2022/04/14 08:03:03;;;;;;;15.13;1.80;;;;;;;9.62;41.82;99490.47;4919605;29;20084;-70
2022/04/14 08:05:34;;;;;;;10.05;1.70;;;;;;;9.64;41.70;99471.06;4942235;29;20107;-70
2022/04/14 08:08:00;;;;;;;17.13;1.85;;;;;;;9.75;41.24;99493.69;4943966;29;20436;-69
2022/04/14 08:10:27;;;;;;;10.00;1.80;;;;;;;9.71;40.93;99471.63;4925281;29;20064;-73
2022/04/14 08:12:53;;;;;;;17.88;3.03;;;;;;;9.83;41.05;99493.16;4930874;29;20056;-72
2022/04/14 08:15:20;;;;;;;7.18;2.10;;;;;;;9.89;41.04;99488.50;4934753;29;20063;-72
2022/04/14 08:17:47;;;;;;;14.30;1.45;;;;;;;9.96;40.70;99483.53;4951504;28;20472;-72
2022/04/14 08:20:15;;;;;;;7.25;1.52;;;;;;;10.08;40.69;99492.25;4943766;29;20146;-72
2022/04/14 08:22:46;;;;;;;17.02;1.88;;;;;;;10.16;40.65;99490.84;4948739;28;20063;-71
2022/04/14 08:25:14;;;;;;;7.43;1.75;;;;;;;10.27;40.30;99488.88;4950472;29;20055;-72
2022/04/14 08:27:40;;;;;;;23.20;4.55;;;;;;;10.34;39.79;99494.88;4916948;29;20105;-71
2022/04/14 08:30:07;;;;;;;14.63;2.60;;;;;;;10.26;39.69;99478.25;4915846;29;20151;-72
2022/04/14 08:32:35;;;;;;;19.50;2.10;;;;;;;10.42;39.83;99481.75;4932781;29;20083;-72
2022/04/14 08:35:01;;;;;;;4.18;1.52;;;;;;;10.51;39.68;99477.31;4932242;29;20267;-72
2022/04/14 08:37:28;;;;;;;7.72;1.88;;;;;;;10.60;39.59;99483.00;4923308;29;20452;-72
2022/04/14 08:39:54;;;;;;;11.23;1.70;;;;;;;10.68;39.65;99473.41;4930821;29;20056;-73
2022/04/14 08:42:24;;;;;;;7.70;1.70;;;;;;;10.78;38.87;99490.56;4937948;29;20078;-73
2022/04/14 08:45:00;;;;;;;5.50;1.50;;;;;;;10.88;38.62;99488.84;4913909;29;20063;-74
2022/04/14 08:47:27;;;;;;;9.68;1.40;;;;;;;11.01;38.44;99488.22;4922302;29;20477;-74
2022/04/14 08:49:56;;;;;;;6.10;1.90;;;;;;;11.13;38.29;99485.09;4919828;29;20083;-74
2022/04/14 08:52:24;;;;;;;15.57;2.78;;;;;;;11.26;38.30;99475.41;4925988;29;20090;-73
2022/04/14 08:54:51;;;;;;;7.13;1.55;;;;;;;11.39;38.13;99482.13;4912468;29;20528;-73
2022/04/14 08:57:17;;;;;;;10.55;1.98;;;;;;;11.48;37.87;99476.88;4916510;29;20531;-73
2022/04/14 08:59:47;;;;;;;6.10;1.55;;;;;;;11.60;37.96;99480.00;4935200;28;20056;-71
2022/04/14 09:02:17;;;;;;;11.52;1.70;;;;;;;11.72;37.51;99465.94;4931287;29;20534;-69
2022/04/14 09:04:44;;;;;;;3.38;1.23;;;;;;;11.82;37.52;99467.75;4919114;29;20082;-72
2022/04/14 09:07:11;;;;;;;9.07;1.73;;;;;;;11.91;36.71;99471.47;4935513;29;20078;-72
2022/04/14 09:09:38;;;;;;;4.80;1.48;;;;;;;11.94;36.63;99450.91;4935803;29;20074;-71
2022/04/14 09:12:06;;;;;;;7.57;1.60;;;;;;;12.07;36.63;99452.13;4922669;29;20111;-71
2022/04/14 09:14:34;;;;;;;13.60;2.38;;;;;;;12.18;36.81;99456.38;4922920;29;20788;-71
2022/04/14 09:17:01;;;;;;;12.38;1.88;;;;;;;12.24;36.26;99459.03;4933264;29;20055;-72
2022/04/14 09:19:30;;;;;;;9.70;1.40;;;;;;;12.29;35.96;99459.78;4939239;29;20060;-72
2022/04/14 09:21:57;;;;;;;8.25;2.05;;;;;;;12.37;35.60;99443.81;4931273;29;20051;-72
2022/04/14 09:24:39;;;;;;;7.20;1.50;;;;;;;12.50;35.76;99453.22;4928445;29;20056;-72
2022/04/14 09:27:06;;;;;;;10.23;1.77;;;;;;;12.57;34.58;99465.44;4938486;29;20067;-71
2022/04/14 09:29:33;;;;;;;8.97;1.60;;;;;;;12.65;34.96;99453.00;4932449;29;20576;-72
2022/04/14 09:31:59;;;;;;;8.02;1.42;;;;;;;12.74;34.45;99459.44;4933364;29;20048;-70
2022/04/14 09:34:50;;;;;;;10.18;1.42;;;;;;;12.85;33.86;99457.34;4933706;29;20066;-71
2022/04/14 09:37:18;;;;;;;8.68;1.92;;;;;;;12.99;33.76;99460.16;4917191;29;20099;-72
2022/04/14 09:39:55;;;;;;;9.88;1.33;;;;;;;13.07;33.38;99464.13;4931383;29;20048;-72
2022/04/14 09:42:22;;;;;;;;;;;;;;;13.22;33.61;99478.72;4935024;29;20059;-72
2022/04/14 09:44:48;;;;;;;12.25;1.80;;;;;;;13.26;33.41;99457.78;4935446;29;19926;-73
2022/04/14 09:47:22;;;;;;;9.73;1.80;;;;;;;13.33;32.89;99447.25;4938095;29;20059;-72
2022/04/14 09:49:48;;;;;;;8.60;1.65;;;;;;;13.49;32.99;99452.47;4915934;29;20194;-71
2022/04/14 09:52:14;;;;;;;8.77;1.60;;;;;;;13.60;33.05;99438.25;4932251;29;20432;-72
2022/04/14 09:54:41;;;;;;;5.55;1.45;;;;;;;13.69;32.75;99445.81;4934292;29;20064;-72
2022/04/14 09:57:11;;;;;;;6.07;1.60;;;;;;;13.83;32.89;99437.53;4933507;28;20591;-71
2022/04/14 09:59:41;;;;;;;10.80;1.70;;;;;;;13.90;33.12;99448.97;4931337;29;20138;-71
2022/04/14 10:02:09;;;;;;;9.38;1.70;;;;;;;13.91;33.09;99436.84;4941293;29;20552;-70
2022/04/14 10:04:38;;;;;;;9.35;1.58;;;;;;;14.04;33.19;99449.75;4931928;29;20055;-70
2022/04/14 10:07:09;;;;;;;3.55;1.40;;;;;;;14.12;32.88;99450.97;4931776;29;20539;-69
2022/04/14 10:09:41;;;;;;;12.43;1.77;;;;;;;14.22;33.07;99449.94;4944215;28;20058;-71
2022/04/14 10:12:28;;;;;;;11.40;2.03;;;;;;;14.31;33.05;99437.09;4928239;29;20059;-71
2022/04/14 10:15:07;;;;;;;4.63;1.55;;;;;;;14.37;32.70;99448.00;4934875;29;20059;-70
2022/04/14 10:17:38;;;;;;;11.85;2.15;;;;;;;14.45;33.24;99447.25;4922503;29;20155;-71
2022/04/14 10:20:07;;;;;;;4.28;1.50;;;;;;;14.54;32.89;99434.41;4928157;29;20447;-70
2022/04/14 10:22:34;;;;;;;5.53;1.50;;;;;;;14.56;32.58;99432.13;4914469;29;20099;-70
2022/04/14 10:25:01;;;;;;;12.32;1.60;;;;;;;14.63;32.08;99442.72;4930164;29;20052;-71
2022/04/14 10:27:31;;;;;;;10.75;1.58;;;;;;;14.72;32.05;99440.88;4908842;29;20055;-71
2022/04/14 10:29:58;;;;;;;5.32;1.50;;;;;;;14.74;32.01;99430.34;4934223;29;20681;-71
2022/04/14 10:32:26;;;;;;;11.52;1.83;;;;;;;14.80;31.84;99433.81;4916401;29;20130;-70
2022/04/14 10:34:54;;;;;;;7.75;1.80;;;;;;;14.84;31.81;99443.09;4938341;29;20433;-70
2022/04/14 10:37:25;;;;;;;7.75;1.80;;;;;;;14.91;31.96;99445.41;4934031;29;20237;-71
2022/04/14 10:39:52;;;;;;;6.13;1.95;;;;;;;14.94;31.90;99452.19;4916463;29;20119;-70
2022/04/14 10:42:23;;;;;;;14.65;2.28;;;;;;;14.93;31.21;99439.56;4935187;28;20069;-70
2022/04/14 10:44:52;;;;;;;11.07;1.83;;;;;;;14.94;31.01;99435.69;4939451;29;20111;-71
2022/04/14 10:47:35;;;;;;;2.97;1.33;;;;;;;15.07;30.82;99436.75;4933053;29;20094;-71
2022/04/14 10:50:03;;;;;;;8.77;1.52;;;;;;;15.13;30.57;99428.03;4929909;29;20051;-71
2022/04/14 10:52:29;;;;;;;4.88;1.52;;;;;;;15.22;30.71;99430.88;4935934;29;20059;-70
2022/04/14 10:54:57;;;;;;;10.60;1.60;;;;;;;15.32;30.22;99416.00;4932498;29;20083;-71
2022/04/14 10:57:37;;;;;;;4.60;1.42;;;;;;;15.41;29.93;99429.81;4933622;29;20737;-72
2022/04/14 11:00:36;;;;;;;4.53;1.65;;;;;;;15.50;30.00;99432.63;4932404;29;20528;-71
2022/04/14 11:03:03;;;;;;;6.95;1.60;;;;;;;15.64;30.60;99427.81;4932546;29;20493;-71
2022/04/14 11:05:46;;;;;;;5.28;1.70;;;;;;;15.74;29.97;99410.19;4932735;29;20074;-71
2022/04/14 11:08:24;;;;;;;5.07;1.55;;;;;;;15.79;29.54;99415.53;4927808;29;20075;-73
2022/04/14 11:10:55;;;;;;;11.65;1.52;;;;;;;15.92;29.89;99427.63;4939374;28;20059;-73
2022/04/14 11:13:22;;;;;;;6.38;1.73;;;;;;;16.09;29.51;99423.28;4942868;29;20064;-72
2022/04/14 11:15:50;;;;;;;5.70;1.63;;;;;;;16.22;29.39;99413.25;4923797;29;20143;-72
2022/04/14 11:18:16;;;;;;;8.15;1.48;;;;;;;16.33;28.79;99408.22;4928718;29;20607;-72
2022/04/14 11:20:55;;;;;;;9.40;3.13;;;;;;;16.48;28.57;99404.19;4927961;29;20060;-72
2022/04/14 11:23:24;;;;;;;12.85;1.70;;;;;;;16.60;28.65;99404.34;4922586;28;20056;-72
2022/04/14 11:25:52;;;;;;;7.25;2.08;;;;;;;16.69;28.36;99396.06;4931796;29;20429;-71
2022/04/14 11:28:25;;;;;;;13.27;1.77;;;;;;;16.80;28.10;99397.34;4934930;29;20065;-71
2022/04/14 11:30:54;;;;;;;10.30;1.70;;;;;;;16.96;28.13;99391.31;4918230;29;20075;-72
2022/04/14 11:33:32;;;;;;;8.05;1.65;;;;;;;17.23;27.76;99403.16;4927848;29;20480;-72
2022/04/14 11:36:10;;;;;;;11.07;1.83;;;;;;;17.40;27.77;99405.03;4931933;29;20077;-71
2022/04/14 11:38:59;;;;;;;11.65;1.95;;;;;;;17.65;27.13;99397.81;4936884;29;20147;-71
2022/04/14 11:41:36;;;;;;;8.30;2.25;;;;;;;17.96;26.50;99390.31;4933615;29;20064;-71